Time;durP1;ratioP1;P1;durP2;ratioP2;P2;SDS_P1;SDS_P2;PMS_P1;PMS_P2;Temp;Humidity;BMP_temperature;BMP_pressure;BME280_temperature;BME280_humidity;BME280_pressure;Samples;Min_cycle;Max_cycle;Signal;HPM_P1;HPM_P2
2022/03/24 00:01:46;;;;;;;25.60;14.82;;;;;;;-0.62;100.00;102860.84;4771620;30;20044;-83
2022/03/24 00:04:12;;;;;;;32.67;15.35;;;;;;;-0.26;100.00;102904.91;4775399;30;20039;-83
2022/03/24 00:06:37;;;;;;;38.03;17.88;;;;;;;-1.30;100.00;102723.22;4759405;30;20099;-83
2022/03/24 00:09:04;;;;;;;39.17;18.15;;;;;;;-0.09;100.00;102915.47;4788095;30;20027;-83
2022/03/24 00:11:29;;;;;;;24.83;14.88;;;;;;;-0.08;100.00;102916.34;4779585;30;20058;-83
2022/03/24 00:13:55;;;;;;;29.25;16.92;;;;;;;-0.07;100.00;102918.88;4758064;30;20039;-83
2022/03/24 00:16:20;;;;;;;34.20;16.92;;;;;;;-0.09;100.00;102901.41;4795383;30;20091;-83
2022/03/24 00:18:46;;;;;;;24.90;15.38;;;;;;;-0.48;100.00;102829.25;4781308;30;20142;-83
2022/03/24 00:21:12;;;;;;;23.92;15.38;;;;;;;-0.03;100.00;102899.28;4795242;30;20031;-83
2022/03/24 00:23:38;;;;;;;31.40;16.42;;;;;;;0.04;100.00;102909.56;4779496;29;20039;-81
2022/03/24 00:26:04;;;;;;;45.22;18.17;;;;;;;-0.07;100.00;102884.50;4779547;29;20030;-83
2022/03/24 00:28:34;;;;;;;47.22;19.92;;;;;;;0.02;100.00;102900.84;4779141;30;20020;-83
2022/03/24 00:31:01;;;;;;;49.80;20.17;;;;;;;0.04;100.00;102893.69;4777804;30;20093;-82
2022/03/24 00:33:26;;;;;;;38.40;18.35;;;;;;;-0.01;100.00;102878.88;4795587;30;20119;-83
2022/03/24 00:35:52;;;;;;;73.90;23.42;;;;;;;0.22;100.00;102903.31;4797887;29;20023;-82
2022/03/24 00:38:17;;;;;;;51.20;20.13;;;;;;;0.28;100.00;102910.94;4810980;30;20507;-83
2022/03/24 00:40:43;;;;;;;118.78;24.85;;;;;;;0.29;100.00;102896.75;4794663;30;20051;-82
2022/03/24 00:43:09;;;;;;;64.95;21.08;;;;;;;0.19;100.00;102875.19;4793859;30;20028;-82
2022/03/24 00:45:35;;;;;;;67.90;20.98;;;;;;;0.22;100.00;102877.69;4794608;29;20117;-82
2022/03/24 00:48:00;;;;;;;107.53;22.20;;;;;;;0.30;100.00;102893.19;4777584;30;20043;-83
2022/03/24 00:50:26;;;;;;;70.30;20.55;;;;;;;0.26;100.00;102865.13;4807999;29;20052;-82
2022/03/24 00:52:52;;;;;;;64.40;20.73;;;;;;;0.34;100.00;102868.25;4798169;30;20020;-82
2022/03/24 00:55:19;;;;;;;69.75;19.67;;;;;;;0.07;100.00;102814.97;4793895;30;20061;-81
2022/03/24 00:57:49;;;;;;;76.43;20.17;;;;;;;0.29;100.00;102841.16;4770420;30;20040;-82
2022/03/24 01:00:16;;;;;;;85.70;21.90;;;;;;;0.26;100.00;102813.97;4793569;30;20023;-81
2022/03/24 01:02:43;;;;;;;65.93;21.20;;;;;;;0.51;100.00;102856.75;4777833;30;20034;-82
2022/03/24 01:05:13;;;;;;;284.02;30.88;;;;;;;0.57;100.00;102855.56;4775200;30;20028;-83
2022/03/24 01:07:39;;;;;;;124.75;25.40;;;;;;;0.61;100.00;102857.09;4791942;30;20027;-83
2022/03/24 01:10:06;;;;;;;160.80;24.80;;;;;;;0.66;100.00;102855.03;4769875;30;20054;-82
2022/03/24 01:12:32;;;;;;;213.45;27.38;;;;;;;0.63;100.00;102842.84;4797382;30;20039;-83
2022/03/24 01:14:58;;;;;;;252.80;28.15;;;;;;;0.72;100.00;102844.09;4803592;30;20046;-80
2022/03/24 01:17:25;;;;;;;140.35;24.25;;;;;;;0.53;100.00;102806.31;4777111;30;20107;-83
2022/03/24 01:19:51;;;;;;;261.10;29.98;;;;;;;0.75;100.00;102840.44;4770892;30;20055;-83
2022/03/24 01:22:16;;;;;;;311.08;27.73;;;;;;;0.47;100.00;102795.13;4769803;30;20031;-83
2022/03/24 01:24:42;;;;;;;430.65;36.05;;;;;;;0.62;100.00;102821.72;4770527;30;20054;-83
2022/03/24 01:27:10;;;;;;;178.80;26.80;;;;;;;0.64;100.00;102803.94;4755181;30;20038;-84
2022/03/24 01:29:35;;;;;;;334.50;29.73;;;;;;;0.79;100.00;102834.03;4769905;30;20031;-83
2022/03/24 01:32:00;;;;;;;320.92;29.27;;;;;;;0.68;100.00;102805.47;4785588;30;20055;-83
2022/03/24 01:34:26;;;;;;;373.40;31.88;;;;;;;0.77;100.00;102815.56;4757079;30;20046;-82
2022/03/24 01:36:55;;;;;;;256.65;27.63;;;;;;;0.93;100.00;102832.31;4793007;30;20227;-83
2022/03/24 01:39:20;;;;;;;336.15;28.77;;;;;;;0.90;100.00;102826.34;4771987;30;20036;-83
2022/03/24 01:41:47;;;;;;;425.83;31.73;;;;;;;0.89;100.00;102825.50;4794005;30;20035;-83
2022/03/24 01:44:14;;;;;;;402.45;30.95;;;;;;;0.88;100.00;102814.97;4787120;30;20289;-84
2022/03/24 01:47:02;;;;;;;257.02;30.58;;;;;;;1.03;100.00;102831.81;4781570;30;20036;-83
2022/03/24 01:49:31;;;;;;;250.57;26.05;;;;;;;1.06;100.00;102831.59;4783766;30;20471;-83
2022/03/24 01:51:57;;;;;;;261.63;28.00;;;;;;;1.06;100.00;102827.19;4783862;30;20032;-83
2022/03/24 01:54:27;;;;;;;158.77;25.52;;;;;;;1.02;100.00;102817.66;4783595;30;20433;-83
2022/03/24 01:56:53;;;;;;;246.48;24.80;;;;;;;0.95;100.00;102792.47;4783625;30;20043;-83
2022/03/24 01:59:20;;;;;;;430.83;35.35;;;;;;;1.05;100.00;102798.09;4753283;30;20031;-83
2022/03/24 02:01:46;;;;;;;296.45;29.67;;;;;;;1.12;100.00;102810.91;4782096;30;20028;-83
2022/03/24 02:04:11;;;;;;;232.23;29.55;;;;;;;1.20;100.00;102815.78;4782631;30;20091;-82
2022/03/24 02:06:37;;;;;;;257.58;30.80;;;;;;;1.22;100.00;102805.06;4789672;30;20435;-82
2022/03/24 02:09:04;;;;;;;199.20;29.02;;;;;;;1.23;100.00;102805.00;4770416;30;20434;-81
2022/03/24 02:11:31;;;;;;;463.50;40.05;;;;;;;1.16;100.00;102785.94;4781765;30;20062;-83
2022/03/24 02:13:57;;;;;;;238.88;32.58;;;;;;;1.17;100.00;102784.97;4769545;30;20031;-83
2022/03/24 02:16:27;;;;;;;215.65;30.63;;;;;;;1.28;100.00;102799.41;4764286;30;20107;-83
2022/03/24 02:18:55;;;;;;;169.20;28.80;;;;;;;1.17;100.00;102776.19;4785174;30;20031;-83
2022/03/24 02:21:20;;;;;;;391.88;36.67;;;;;;;1.24;100.00;102790.78;4771741;30;20098;-82
2022/03/24 02:23:46;;;;;;;347.50;35.60;;;;;;;1.27;100.00;102787.09;4779487;30;20035;-83
2022/03/24 02:26:12;;;;;;;477.50;43.22;;;;;;;1.36;100.00;102797.19;4771918;30;20039;-83
2022/03/24 02:28:38;;;;;;;329.88;36.58;;;;;;;1.37;100.00;102791.78;4784464;30;20040;-83
2022/03/24 02:31:04;;;;;;;282.60;33.75;;;;;;;1.39;100.00;102802.28;4786588;30;20126;-83
2022/03/24 02:33:31;;;;;;;296.35;35.40;;;;;;;1.35;100.00;102791.00;4771045;30;20421;-83
2022/03/24 02:35:56;;;;;;;336.67;33.22;;;;;;;1.26;100.00;102770.34;4783910;30;20105;-83
2022/03/24 02:38:22;;;;;;;587.30;42.08;;;;;;;1.45;100.00;102799.28;4783013;30;20039;-84
2022/03/24 02:40:52;;;;;;;515.53;40.72;;;;;;;1.48;100.00;102793.78;4766904;30;20082;-83
2022/03/24 02:43:19;;;;;;;320.35;36.30;;;;;;;1.52;100.00;102799.75;4782219;30;20834;-81
2022/03/24 02:45:46;;;;;;;542.55;41.83;;;;;;;1.32;100.00;102756.69;4757693;30;20039;-83
2022/03/24 02:48:12;;;;;;;460.17;40.53;;;;;;;1.55;100.00;102796.94;4770961;30;20040;-83
2022/03/24 02:50:38;;;;;;;462.55;39.53;;;;;;;1.58;100.00;102794.94;4764058;30;20088;-83
2022/03/24 02:53:04;;;;;;;320.33;35.45;;;;;;;1.22;100.00;102731.66;4786562;30;20123;-82
2022/03/24 02:55:30;;;;;;;333.25;36.80;;;;;;;1.55;100.00;102787.16;4767420;30;20047;-83
2022/03/24 02:57:56;;;;;;;428.38;40.03;;;;;;;1.63;100.00;102800.00;4782231;30;20043;-83
2022/03/24 03:00:25;;;;;;;944.55;53.85;;;;;;;1.65;100.00;102798.09;4784612;30;20036;-84
2022/03/24 03:02:52;;;;;;;617.85;40.92;;;;;;;1.69;100.00;102796.09;4782490;30;20062;-83
2022/03/24 03:05:20;;;;;;;285.27;38.65;;;;;;;1.72;100.00;102788.81;4752601;30;20553;-84
2022/03/24 03:07:46;;;;;;;419.23;40.72;;;;;;;1.70;100.00;102785.41;4766799;30;20027;-83
2022/03/24 03:10:12;;;;;;;504.63;41.60;;;;;;;1.78;100.00;102784.94;4766476;30;20039;-83
2022/03/24 03:12:37;;;;;;;396.70;39.83;;;;;;;1.78;100.00;102784.94;4764960;30;20103;-83
2022/03/24 03:15:04;;;;;;;396.13;39.25;;;;;;;1.75;100.00;102772.69;4752219;30;20028;-84
2022/03/24 03:17:30;;;;;;;587.83;49.78;;;;;;;1.80;100.00;102780.41;4776593;30;20051;-82
2022/03/24 03:19:56;;;;;;;295.45;37.92;;;;;;;1.68;100.00;102760.75;4800923;30;20038;-81
2022/03/24 03:22:22;;;;;;;435.05;41.10;;;;;;;1.71;100.00;102759.72;4799982;30;20074;-83
2022/03/24 03:24:48;;;;;;;659.35;50.58;;;;;;;1.73;100.00;102760.50;4783926;30;20073;-82
2022/03/24 03:27:14;;;;;;;275.90;36.50;;;;;;;1.84;100.00;102776.59;4788788;30;20036;-83
2022/03/24 03:29:40;;;;;;;255.25;35.90;;;;;;;1.66;100.00;102746.75;4751468;30;20477;-84
2022/03/24 03:32:06;;;;;;;517.90;45.40;;;;;;;1.76;100.00;102762.97;4782009;30;20436;-81
2022/03/24 03:34:32;;;;;;;603.63;49.10;;;;;;;1.81;100.00;102772.31;4782657;30;20044;-83
2022/03/24 03:36:59;;;;;;;438.08;46.33;;;;;;;1.78;100.00;102777.81;4770188;30;20465;-83
2022/03/24 03:39:27;;;;;;;784.63;56.60;;;;;;;1.65;100.00;102756.47;4802751;30;20035;-82
2022/03/24 03:41:54;;;;;;;421.63;42.13;;;;;;;1.79;100.00;102779.53;4768220;30;20042;-83
2022/03/24 03:44:20;;;;;;;258.95;41.17;;;;;;;1.72;100.00;102767.56;4785684;30;20367;-83
2022/03/24 03:46:45;;;;;;;544.65;47.30;;;;;;;1.76;100.00;102770.91;4801347;30;20049;-82
2022/03/24 03:49:11;;;;;;;513.13;48.65;;;;;;;1.82;100.00;102778.47;4800888;30;20083;-82
2022/03/24 03:51:37;;;;;;;212.80;39.60;;;;;;;1.72;100.00;102756.94;4778904;30;20036;-82
2022/03/24 03:54:07;;;;;;;860.63;55.33;;;;;;;1.76;100.00;102771.78;4786112;30;20043;-82
2022/03/24 03:56:34;;;;;;;507.25;48.72;;;;;;;1.84;100.00;102787.22;4788140;30;20035;-82
2022/03/24 03:58:59;;;;;;;584.25;48.30;;;;;;;1.87;100.00;102782.56;4763952;30;20117;-83
2022/03/24 04:01:26;;;;;;;731.10;57.45;;;;;;;1.81;100.00;102776.78;4783531;30;20039;-82
2022/03/24 04:03:53;;;;;;;307.98;41.20;;;;;;;1.85;100.00;102781.84;4761315;30;20035;-84
2022/03/24 04:06:18;;;;;;;670.70;53.00;;;;;;;1.87;100.00;102774.59;4782372;30;20046;-82
2022/03/24 04:08:44;;;;;;;339.60;39.97;;;;;;;1.86;100.00;102775.56;4738908;30;20032;-83
2022/03/24 04:11:12;;;;;;;371.13;41.10;;;;;;;1.88;100.00;102775.47;4788411;30;20095;-83
2022/03/24 04:13:39;;;;;;;430.40;40.30;;;;;;;1.87;100.00;102766.66;4772853;30;20123;-82
2022/03/24 04:16:14;;;;;;;443.63;43.45;;;;;;;1.84;100.00;102761.53;4753507;30;20128;-83
2022/03/24 04:18:43;;;;;;;467.80;46.80;;;;;;;1.82;100.00;102763.44;4766449;30;20035;-83
2022/03/24 04:21:09;;;;;;;473.08;47.55;;;;;;;1.72;100.00;102745.50;4784634;30;20094;-83
2022/03/24 04:23:39;;;;;;;343.55;41.75;;;;;;;1.75;100.00;102753.25;4776822;30;20067;-83
2022/03/24 04:26:05;;;;;;;379.15;42.97;;;;;;;1.85;100.00;102762.38;4764049;30;20040;-83
2022/03/24 04:28:31;;;;;;;290.55;41.08;;;;;;;1.68;100.00;102733.38;4760517;30;20038;-82
2022/03/24 04:30:56;;;;;;;570.85;51.33;;;;;;;1.53;100.00;102706.81;4783449;30;20046;-83
2022/03/24 04:33:24;;;;;;;581.83;52.58;;;;;;;1.90;100.00;102765.59;4784500;30;20098;-83
2022/03/24 04:35:50;;;;;;;323.23;46.42;;;;;;;1.68;100.00;102722.75;4772556;30;20028;-82
2022/03/24 04:38:16;;;;;;;465.05;50.65;;;;;;;1.86;100.00;102749.03;4800011;29;20031;-83
2022/03/24 04:40:41;;;;;;;519.33;50.17;;;;;;;1.86;100.00;102742.88;4796044;30;20127;-82
2022/03/24 04:43:07;;;;;;;671.38;56.33;;;;;;;1.96;100.00;102748.47;4752543;30;20031;-83
2022/03/24 04:45:33;;;;;;;734.47;57.20;;;;;;;1.90;100.00;102741.72;4766347;30;20059;-82
2022/03/24 04:48:00;;;;;;;506.55;47.45;;;;;;;1.93;100.00;102735.38;4751882;30;20107;-82
2022/03/24 04:50:26;;;;;;;497.35;47.65;;;;;;;1.71;100.00;102696.88;4789358;30;20115;-81
2022/03/24 04:52:51;;;;;;;581.72;52.47;;;;;;;2.03;100.00;102740.00;4791851;30;20071;-83
2022/03/24 04:55:17;;;;;;;418.40;51.00;;;;;;;2.04;100.00;102741.69;4755232;30;20486;-83
2022/03/24 04:57:42;;;;;;;561.08;51.95;;;;;;;2.06;100.00;102749.59;4794851;30;20435;-83
2022/03/24 05:00:10;;;;;;;485.73;51.95;;;;;;;2.04;100.00;102746.16;4796358;30;20039;-82
2022/03/24 05:02:36;;;;;;;470.00;52.67;;;;;;;2.03;100.00;102734.69;4797681;30;20525;-83
2022/03/24 05:05:01;;;;;;;700.85;60.22;;;;;;;2.12;100.00;102743.91;4774131;30;20039;-82
2022/03/24 05:07:27;;;;;;;464.23;51.42;;;;;;;2.15;100.00;102745.47;4793647;30;20079;-82
2022/03/24 05:09:53;;;;;;;521.20;51.63;;;;;;;2.15;100.00;102748.13;4767857;30;20051;-83
2022/03/24 05:12:19;;;;;;;377.98;48.47;;;;;;;2.16;100.00;102750.72;4776223;30;20031;-82
2022/03/24 05:14:46;;;;;;;643.80;56.58;;;;;;;2.17;100.00;102746.25;4778171;30;20320;-83
2022/03/24 05:17:12;;;;;;;629.97;54.75;;;;;;;2.02;100.00;102724.16;4776057;30;20031;-82
2022/03/24 05:19:39;;;;;;;497.35;52.90;;;;;;;1.96;100.00;102712.13;4776551;30;20063;-82
2022/03/24 05:22:05;;;;;;;527.22;52.50;;;;;;;2.18;100.00;102748.78;4762728;30;20455;-81
2022/03/24 05:24:31;;;;;;;576.58;54.13;;;;;;;2.19;100.00;102744.38;4793848;30;20043;-82
2022/03/24 05:26:57;;;;;;;603.88;53.83;;;;;;;2.22;100.00;102744.16;4767929;30;20194;-81
2022/03/24 05:29:22;;;;;;;495.33;51.88;;;;;;;1.96;100.00;102698.88;4744343;30;20459;-81
2022/03/24 05:31:48;;;;;;;544.25;53.63;;;;;;;2.20;100.00;102722.16;4758417;30;20541;-81
2022/03/24 05:34:13;;;;;;;498.90;54.03;;;;;;;2.05;100.00;102700.06;4790198;30;20117;-80
2022/03/24 05:36:39;;;;;;;515.25;55.70;;;;;;;2.32;100.00;102737.31;4761052;30;20110;-80
2022/03/24 05:39:05;;;;;;;751.35;64.15;;;;;;;2.05;100.00;102678.81;4773577;30;20103;-82
2022/03/24 05:41:32;;;;;;;794.67;64.50;;;;;;;2.30;100.00;102718.81;4761160;30;20493;-81
2022/03/24 05:44:04;;;;;;;756.80;64.57;;;;;;;2.37;100.00;102723.72;4763159;30;20109;-81
2022/03/24 05:46:35;;;;;;;531.10;57.13;;;;;;;2.39;100.00;102719.19;4779534;30;20075;-81
2022/03/24 05:49:01;;;;;;;546.65;60.83;;;;;;;2.45;100.00;102730.28;4775079;30;20055;-79
2022/03/24 05:51:27;;;;;;;674.33;62.92;;;;;;;2.34;100.00;102701.72;4751355;30;20034;-79
2022/03/24 05:53:53;;;;;;;536.90;59.05;;;;;;;2.30;100.00;102692.25;4752692;30;20130;-79
2022/03/24 05:56:19;;;;;;;651.85;62.60;;;;;;;2.45;100.00;102718.75;4754095;30;20042;-80
2022/03/24 05:58:45;;;;;;;688.45;65.00;;;;;;;2.57;100.00;102728.59;4759583;30;20023;-81
2022/03/24 06:01:10;;;;;;;723.45;68.53;;;;;;;2.49;100.00;102704.34;4774684;30;20027;-80
2022/03/24 06:03:37;;;;;;;630.78;63.95;;;;;;;2.47;100.00;102698.28;4774037;30;20126;-80
2022/03/24 06:06:06;;;;;;;709.08;69.55;;;;;;;2.71;100.00;102728.56;4741040;30;20074;-79
2022/03/24 06:08:33;;;;;;;642.80;63.78;;;;;;;2.79;100.00;102733.38;4767407;30;20040;-82
2022/03/24 06:11:00;;;;;;;740.05;67.03;;;;;;;2.84;100.00;102741.91;4772277;30;20019;-82
2022/03/24 06:13:26;;;;;;;661.30;69.38;;;;;;;2.81;100.00;102719.03;4780697;30;20416;-80
2022/03/24 06:15:54;;;;;;;749.97;70.45;;;;;;;2.95;100.00;102734.09;4758084;30;20042;-81
2022/03/24 06:18:20;;;;;;;741.28;75.28;;;;;;;2.99;100.00;102730.25;4787648;30;20024;-83
2022/03/24 06:20:47;;;;;;;823.25;77.13;;;;;;;2.92;100.00;102702.38;4747472;30;20028;-82
2022/03/24 06:23:12;;;;;;;1068.70;85.90;;;;;;;3.03;100.00;102721.09;4763072;30;20044;-81
2022/03/24 06:25:42;;;;;;;845.72;79.28;;;;;;;3.04;100.00;102708.66;4762790;30;20136;-81
2022/03/24 06:28:08;;;;;;;714.80;74.38;;;;;;;3.24;100.00;102729.44;4771516;30;20062;-81
2022/03/24 06:30:33;;;;;;;872.13;82.75;;;;;;;3.33;100.00;102729.78;4782175;30;20040;-81
2022/03/24 06:32:59;;;;;;;853.33;80.22;;;;;;;3.32;100.00;102714.78;4754482;30;20039;-80
2022/03/24 06:35:25;;;;;;;837.00;84.15;;;;;;;3.46;100.00;102731.50;4739693;30;20086;-80
2022/03/24 06:37:51;;;;;;;992.08;86.50;;;;;;;3.51;100.00;102729.38;4755907;30;20028;-80
2022/03/24 06:40:17;;;;;;;694.33;80.13;;;;;;;3.57;100.00;102724.59;4770476;30;20127;-80
2022/03/24 06:42:43;;;;;;;747.45;84.25;;;;;;;3.53;100.00;102698.19;4773485;30;20040;-80
2022/03/24 06:45:10;;;;;;;866.40;86.57;;;;;;;3.81;100.00;102714.03;4777150;29;20024;-79
2022/03/24 06:47:35;;;;;;;754.78;84.80;;;;;;;3.72;100.00;102705.72;4760988;30;20031;-80
2022/03/24 06:50:01;;;;;;;669.30;85.72;;;;;;;3.81;100.00;102724.69;4751912;30;20052;-79
2022/03/24 06:52:26;;;;;;;692.47;84.72;;;;;;;3.71;100.00;102704.03;4764639;30;20203;-82
2022/03/24 06:54:52;;;;;;;873.33;91.13;;;;;;;3.86;100.00;102717.22;4747799;30;20063;-81
2022/03/24 06:57:17;;;;;;;964.75;95.60;;;;;;;3.89;100.00;102717.00;4748873;30;20051;-81
2022/03/24 06:59:43;;;;;;;868.13;92.78;;;;;;;3.92;100.00;102708.81;4776084;30;20130;-80
2022/03/24 07:02:09;;;;;;;904.33;95.60;;;;;;;3.88;100.00;102707.34;4756601;30;20039;-81
2022/03/24 07:04:36;;;;;;;858.65;100.32;;;;;;;3.99;100.00;102720.72;4745058;30;20036;-80
2022/03/24 07:07:01;;;;;;;513.42;87.57;;;;;;;4.07;100.00;102729.00;4772468;30;20040;-81
2022/03/24 07:09:27;;;;;;;831.85;100.32;;;;;;;4.05;100.00;102698.97;4774365;30;20126;-80
2022/03/24 07:11:54;;;;;;;811.47;101.43;;;;;;;4.35;100.00;102721.72;4774925;30;20119;-81
2022/03/24 07:14:19;;;;;;;763.90;100.35;;;;;;;4.40;100.00;102724.88;4775024;30;20031;-80
2022/03/24 07:16:45;;;;;;;827.17;101.43;;;;;;;4.43;100.00;102720.16;4756070;30;20043;-82
2022/03/24 07:19:10;;;;;;;705.15;97.25;;;;;;;4.41;100.00;102719.44;4768218;30;20387;-83
2022/03/24 07:21:36;;;;;;;553.22;97.35;;;;;;;4.44;100.00;102721.06;4776295;30;20142;-80
2022/03/24 07:24:02;;;;;;;607.38;98.38;;;;;;;4.47;100.00;102723.50;4786744;30;20066;-81
2022/03/24 07:26:27;;;;;;;537.60;96.93;;;;;;;4.37;100.00;102722.44;4776843;30;20067;-81
2022/03/24 07:28:53;;;;;;;561.95;97.53;;;;;;;4.28;100.00;102684.00;4758374;30;20252;-81
2022/03/24 07:31:19;;;;;;;878.47;107.93;;;;;;;4.60;100.00;102732.28;4773843;30;20039;-81
2022/03/24 07:33:46;;;;;;;586.53;95.28;;;;;;;4.68;100.00;102729.91;4764132;30;20139;-81
2022/03/24 07:36:12;;;;;;;574.47;93.82;;;;;;;4.74;100.00;102733.94;4784261;30;20031;-81
2022/03/24 07:38:38;;;;;;;414.25;90.47;;;;;;;4.70;100.00;102711.97;4785558;30;20043;-81
2022/03/24 07:41:05;;;;;;;509.38;92.15;;;;;;;4.79;100.00;102712.25;4766109;30;20375;-82
2022/03/24 07:43:32;;;;;;;448.92;90.07;;;;;;;5.01;100.00;102733.69;4761828;30;20049;-81
2022/03/24 07:45:57;;;;;;;326.75;81.65;;;;;;;5.16;100.00;102740.53;4746088;30;20042;-81
2022/03/24 07:48:27;;;;;;;330.08;83.30;;;;;;;5.04;100.00;102689.94;4761653;30;20111;-81
2022/03/24 07:50:55;;;;;;;459.88;88.80;;;;;;;5.37;100.00;102731.88;4731524;30;20060;-81
2022/03/24 07:53:48;;;;;;;311.50;79.47;;;;;;;5.43;100.00;102734.06;4791464;30;20344;-81
2022/03/24 07:56:19;;;;;;;217.82;75.10;;;;;;;5.44;100.00;102737.59;4776587;30;20024;-80
2022/03/24 07:58:46;;;;;;;245.57;74.13;;;;;;;5.56;100.00;102741.97;4777755;30;20745;-81
2022/03/24 08:01:12;;;;;;;282.70;78.47;;;;;;;5.54;100.00;102747.44;4792275;30;20039;-81
2022/03/24 08:03:38;;;;;;;267.90;79.00;;;;;;;5.62;100.00;102739.66;4765808;30;20039;-81
2022/03/24 08:06:04;;;;;;;213.80;75.90;;;;;;;5.65;100.00;102738.59;4764435;30;20035;-82
2022/03/24 08:08:33;;;;;;;144.63;66.55;;;;;;;5.63;100.00;102727.19;4764504;30;20055;-82
2022/03/24 08:10:59;;;;;;;157.50;69.30;;;;;;;5.42;100.00;102698.50;4769680;30;20027;-80
2022/03/24 08:13:25;;;;;;;159.93;70.47;;;;;;;5.57;100.00;102725.84;4777489;30;20158;-82
2022/03/24 08:15:51;;;;;;;154.88;69.93;;;;;;;5.56;100.00;102734.81;4770758;30;20065;-82
2022/03/24 08:18:18;;;;;;;152.88;68.38;;;;;;;5.56;100.00;102724.16;4776625;30;20062;-81
2022/03/24 08:20:47;;;;;;;170.05;71.07;;;;;;;5.64;100.00;102729.72;4763832;30;20106;-82
2022/03/24 08:23:14;;;;;;;149.90;67.85;;;;;;;5.64;100.00;102734.22;4764501;30;20391;-82
2022/03/24 08:25:42;;;;;;;127.90;65.03;;;;;;;5.75;100.00;102746.72;4784130;30;20036;-82
2022/03/24 08:28:09;;;;;;;130.00;61.13;;;;;;;5.22;100.00;102663.63;4782663;30;20028;-82
2022/03/24 08:30:35;;;;;;;134.35;69.03;;;;;;;5.75;100.00;102752.06;4751471;30;20031;-81
2022/03/24 08:33:00;;;;;;;138.15;68.28;;;;;;;5.85;100.00;102753.06;4765577;30;20035;-82
2022/03/24 08:35:26;;;;;;;149.07;72.65;;;;;;;5.98;100.00;102751.16;4767117;30;20048;-82
2022/03/24 08:37:52;;;;;;;149.70;74.28;;;;;;;6.06;100.00;102738.03;4766625;30;20055;-82
2022/03/24 08:40:17;;;;;;;147.50;72.57;;;;;;;5.80;100.00;102673.28;4780995;30;20027;-82
2022/03/24 08:42:43;;;;;;;139.48;69.97;;;;;;;6.38;100.00;102745.28;4766570;30;20047;-83
2022/03/24 08:45:11;;;;;;;147.40;72.82;;;;;;;6.40;100.00;102745.19;4786830;30;20043;-83
2022/03/24 08:47:37;;;;;;;131.73;68.80;;;;;;;6.43;100.00;102743.09;4773676;29;20138;-82
2022/03/24 08:50:05;;;;;;;139.25;72.07;;;;;;;6.34;100.00;102698.38;4776990;30;20459;-82
2022/03/24 08:52:30;;;;;;;120.43;66.97;;;;;;;6.56;100.00;102725.09;4775361;30;20072;-82
2022/03/24 08:54:57;;;;;;;118.00;67.43;;;;;;;6.53;100.00;102711.97;4800905;30;20030;-81
2022/03/24 08:57:26;;;;;;;129.38;70.15;;;;;;;6.71;100.00;102741.69;4755526;30;20077;-82
2022/03/24 09:00:00;;;;;;;124.03;67.47;;;;;;;6.76;100.00;102727.94;4766784;30;20107;-82
2022/03/24 09:02:27;;;;;;;124.45;68.78;;;;;;;6.92;100.00;102733.72;4764274;30;20032;-83
2022/03/24 09:04:53;;;;;;;126.00;68.25;;;;;;;6.89;100.00;102733.97;4752615;30;20051;-82
2022/03/24 09:07:20;;;;;;;116.90;66.90;;;;;;;7.00;100.00;102731.25;4754817;30;20118;-83
2022/03/24 09:09:45;;;;;;;115.50;65.75;;;;;;;7.05;100.00;102733.53;4797647;30;20035;-82
2022/03/24 09:12:11;;;;;;;112.50;65.18;;;;;;;7.03;100.00;102712.25;4795949;30;20128;-82
2022/03/24 09:14:39;;;;;;;112.88;64.75;;;;;;;7.14;100.00;102743.47;4774264;30;20046;-82
2022/03/24 09:17:05;;;;;;;110.38;63.75;;;;;;;7.18;100.00;102744.06;4752606;30;20035;-82
2022/03/24 09:19:30;;;;;;;104.95;62.28;;;;;;;7.05;100.00;102718.34;4782313;30;20164;-82
2022/03/24 09:21:56;;;;;;;103.13;61.05;;;;;;;7.21;100.00;102735.75;4767425;30;20035;-83
2022/03/24 09:24:21;;;;;;;105.88;59.50;;;;;;;7.33;100.00;102732.06;4737851;30;20051;-82
2022/03/24 09:26:46;;;;;;;90.55;58.28;;;;;;;7.17;100.00;102676.28;4754552;30;20039;-80
2022/03/24 09:29:13;;;;;;;90.15;56.13;;;;;;;7.54;100.00;102727.53;4798185;30;20051;-83
2022/03/24 09:31:38;;;;;;;88.38;55.60;;;;;;;7.65;100.00;102720.38;4798676;29;20039;-83
2022/03/24 09:34:05;;;;;;;88.60;54.28;;;;;;;7.66;100.00;102693.47;4770026;30;20048;-82
2022/03/24 09:36:31;;;;;;;89.53;53.90;;;;;;;8.01;100.00;102729.72;4770370;30;20434;-82
2022/03/24 09:38:57;;;;;;;78.82;52.53;;;;;;;8.15;100.00;102740.09;4775847;30;20039;-82
2022/03/24 09:41:27;;;;;;;83.38;53.80;;;;;;;7.77;100.00;102668.41;4791659;29;20028;-82
2022/03/24 09:43:52;;;;;;;77.63;52.58;;;;;;;7.84;100.00;102700.88;4778540;30;20003;-84
2022/03/24 09:46:19;;;;;;;80.18;51.13;;;;;;;7.93;100.00;102719.69;4772358;30;20032;-83
2022/03/24 09:48:45;;;;;;;86.25;53.70;;;;;;;7.96;100.00;102748.91;4770238;30;20028;-82
2022/03/24 09:51:11;;;;;;;80.63;52.20;;;;;;;7.73;100.00;102720.59;4770817;30;20031;-83
2022/03/24 09:53:39;;;;;;;78.25;51.05;;;;;;;7.82;100.00;102727.84;4759303;29;20161;-83
2022/03/24 09:56:06;;;;;;;80.30;52.65;;;;;;;7.74;100.00;102711.56;4793757;29;20118;-82
2022/03/24 09:58:31;;;;;;;72.00;49.75;;;;;;;7.87;100.00;102747.03;4788006;30;20459;-83
2022/03/24 10:00:56;;;;;;;75.25;50.72;;;;;;;7.87;100.00;102744.34;4769894;30;20099;-82
2022/03/24 10:03:22;;;;;;;78.93;50.10;;;;;;;7.98;100.00;102738.91;4779786;30;20039;-81
2022/03/24 10:05:58;;;;;;;73.35;50.03;;;;;;;7.89;100.00;102739.72;4774787;29;20382;-83
2022/03/24 10:08:26;;;;;;;73.60;49.42;;;;;;;7.99;100.00;102729.88;4804513;29;20061;-83
2022/03/24 10:11:01;;;;;;;69.18;49.72;;;;;;;8.11;100.00;102740.50;4804746;29;20058;-83
2022/03/24 10:13:43;;;;;;;69.63;47.65;;;;;;;8.21;100.00;102749.41;4777510;30;20055;-83
2022/03/24 10:16:09;;;;;;;68.07;47.10;;;;;;;8.20;100.00;102720.91;4806160;29;20022;-83
2022/03/24 10:18:35;;;;;;;64.72;46.63;;;;;;;8.30;100.00;102724.47;4776816;30;20055;-83
2022/03/24 10:21:01;;;;;;;65.97;47.67;;;;;;;8.34;100.00;102739.28;4790088;29;20031;-83
2022/03/24 10:23:26;;;;;;;63.65;44.97;;;;;;;8.41;100.00;102737.81;4785383;30;20031;-83
2022/03/24 10:25:52;;;;;;;65.50;44.97;;;;;;;8.39;100.00;102712.97;4788637;30;20073;-83
2022/03/24 10:28:18;;;;;;;64.43;46.08;;;;;;;8.31;100.00;102694.00;4806156;29;20023;-83
2022/03/24 10:30:52;;;;;;;60.42;43.40;;;;;;;8.64;100.00;102733.06;4807861;29;20042;-83
2022/03/24 10:33:38;;;;;;;62.22;43.33;;;;;;;8.67;100.00;102734.59;4809911;29;20095;-83
2022/03/24 10:36:09;;;;;;;60.50;41.83;;;;;;;7.10;100.00;102469.00;4884348;24;20066;-80
2022/03/24 10:38:39;;;;;;;54.25;40.58;;;;;;;7.83;100.00;102592.84;4822427;29;20025;-83
2022/03/24 10:59:11;;;;;;;48.83;35.83;;;;;;;7.83;100.00;102496.34;5786597;24;20025;-80
2022/03/24 11:09:27;;;;;;;47.25;35.00;;;;;;;7.80;100.00;102464.47;5816843;24;20022;-81
2022/03/24 11:14:50;;;;;;;45.95;33.85;;;;;;;8.64;100.00;102592.66;5790941;24;20037;-81
2022/03/24 11:17:16;;;;;;;48.85;34.03;;;;;;;8.06;100.00;102482.69;4811793;29;20057;-83
2022/03/24 11:19:45;;;;;;;47.67;33.40;;;;;;;8.24;100.00;102518.50;4811955;29;20043;-83
2022/03/24 11:22:14;;;;;;;48.20;34.03;;;;;;;9.07;100.00;102619.03;4807028;29;20031;-84
2022/03/24 11:24:40;;;;;;;45.30;33.10;;;;;;;8.10;100.00;102466.16;4795933;29;20031;-84
2022/03/24 11:27:17;;;;;;;47.78;34.03;;;;;;;8.58;100.00;102518.13;4811545;29;20019;-84
2022/03/24 11:29:43;;;;;;;56.17;33.63;;;;;;;8.31;100.00;102470.50;4828548;29;20050;-84